sensor_id;sensor_type;location;lat;lon;timestamp;P1;P2;P0
53698;PMS7003;68408;53.952;27.612;2024-02-16T00:04:21;8.5;6.6;5.5
53698;PMS7003;68408;53.952;27.612;2024-02-16T00:09:07;7.5;6.5;4.8
53698;PMS7003;68408;53.952;27.612;2024-02-16T00:14:23;9.5;7.3;5.8
53698;PMS7003;68408;53.952;27.612;2024-02-16T00:19:07;9.3;6.9;5.4
53698;PMS7003;68408;53.952;27.612;2024-02-16T00:24:07;7.6;6;4.6
53698;PMS7003;68408;53.952;27.612;2024-02-16T00:29:41;10;6.5;5.1
53698;PMS7003;68408;53.952;27.612;2024-02-16T00:34:33;9.7;7.5;6.3
53698;PMS7003;68408;53.952;27.612;2024-02-16T00:39:41;8.1;6.7;5.4
53698;PMS7003;68408;53.952;27.612;2024-02-16T00:44:33;9.2;7.3;5.8
53698;PMS7003;68408;53.952;27.612;2024-02-16T00:49:15;9.1;7.5;6
53698;PMS7003;68408;53.952;27.612;2024-02-16T00:54:31;10.3;7.5;5.9
53698;PMS7003;68408;53.952;27.612;2024-02-16T00:59:41;8.2;6.7;5.5
53698;PMS7003;68408;53.952;27.612;2024-02-16T01:04:25;8.5;6.5;5
53698;PMS7003;68408;53.952;27.612;2024-02-16T01:09:19;9.9;7.7;6
53698;PMS7003;68408;53.952;27.612;2024-02-16T01:14:41;10.8;8.3;6.4
53698;PMS7003;68408;53.952;27.612;2024-02-16T01:19:33;9.4;7.3;5.8
53698;PMS7003;68408;53.952;27.612;2024-02-16T01:24:41;11.2;8.3;6.3
53698;PMS7003;68408;53.952;27.612;2024-02-16T01:29:17;10.6;9;7.4
53698;PMS7003;68408;53.952;27.612;2024-02-16T01:34:39;9.3;7.7;6
53698;PMS7003;68408;53.952;27.612;2024-02-16T01:39:23;10.2;8;6
53698;PMS7003;68408;53.952;27.612;2024-02-16T01:44:19;10.4;7.9;6.3
53698;PMS7003;68408;53.952;27.612;2024-02-16T01:49:31;10.7;8.1;6.5
53698;PMS7003;68408;53.952;27.612;2024-02-16T01:54:07;9.8;7.3;5.5
53698;PMS7003;68408;53.952;27.612;2024-02-16T01:59:41;11.5;8.8;6.7
53698;PMS7003;68408;53.952;27.612;2024-02-16T02:04:07;10.2;8.7;7
53698;PMS7003;68408;53.952;27.612;2024-02-16T02:09:33;9.9;8.5;6.8
53698;PMS7003;68408;53.952;27.612;2024-02-16T02:14:20;11;8.5;6.6
53698;PMS7003;68408;53.952;27.612;2024-02-16T02:19:41;11.2;8.7;6.6
53698;PMS7003;68408;53.952;27.612;2024-02-16T02:24:41;9.9;7.6;6
53698;PMS7003;68408;53.952;27.612;2024-02-16T02:29:41;12.1;8.9;6.9
53698;PMS7003;68408;53.952;27.612;2024-02-16T02:34:13;10;7.7;6
53698;PMS7003;68408;53.952;27.612;2024-02-16T02:39:31;11.9;9.3;7.1
53698;PMS7003;68408;53.952;27.612;2024-02-16T02:44:07;11;8.7;7.1
53698;PMS7003;68408;53.952;27.612;2024-02-16T02:49:29;12.2;9.4;7
53698;PMS7003;68408;53.952;27.612;2024-02-16T02:54:41;12.7;9.1;7.3
53698;PMS7003;68408;53.952;27.612;2024-02-16T02:59:31;11.7;9.9;8.3
53698;PMS7003;68408;53.952;27.612;2024-02-16T03:04:07;12.8;10.1;7.7
53698;PMS7003;68408;53.952;27.612;2024-02-16T03:09:41;12.7;9.6;7.4
53698;PMS7003;68408;53.952;27.612;2024-02-16T03:14:41;12.2;9.8;7.3
53698;PMS7003;68408;53.952;27.612;2024-02-16T03:19:11;10.7;8.4;6.4
53698;PMS7003;68408;53.952;27.612;2024-02-16T03:24:21;10;7.5;6.1
53698;PMS7003;68408;53.952;27.612;2024-02-16T03:29:21;12;9.1;7.4
53698;PMS7003;68408;53.952;27.612;2024-02-16T03:34:07;10.1;8.4;6.7
53698;PMS7003;68408;53.952;27.612;2024-02-16T03:39:21;11;8.9;6.5
53698;PMS7003;68408;53.952;27.612;2024-02-16T03:44:33;10.1;7.9;6.2
53698;PMS7003;68408;53.952;27.612;2024-02-16T03:49:21;11.2;8.6;6.7
53698;PMS7003;68408;53.952;27.612;2024-02-16T03:54:41;12;9.1;7.1
53698;PMS7003;68408;53.952;27.612;2024-02-16T03:59:07;10.1;8.5;6.5
53698;PMS7003;68408;53.952;27.612;2024-02-16T04:04:41;11.5;8.9;6.8
53698;PMS7003;68408;53.952;27.612;2024-02-16T04:09:13;10.7;8.6;6.7
53698;PMS7003;68408;53.952;27.612;2024-02-16T04:14:31;11.3;8.6;6.7
53698;PMS7003;68408;53.952;27.612;2024-02-16T04:19:07;10.1;8;6.2
53698;PMS7003;68408;53.952;27.612;2024-02-16T04:24:29;10.8;8.9;7
53698;PMS7003;68408;53.952;27.612;2024-02-16T04:29:41;10.8;8.8;7.2
53698;PMS7003;68408;53.952;27.612;2024-02-16T04:34:41;10.7;8.6;6.6
53698;PMS7003;68408;53.952;27.612;2024-02-16T04:39:23;11.5;8.8;7.2
53698;PMS7003;68408;53.952;27.612;2024-02-16T04:44:27;11.4;9.3;7.5
53698;PMS7003;68408;53.952;27.612;2024-02-16T04:49:41;12.1;9.2;7
53698;PMS7003;68408;53.952;27.612;2024-02-16T04:54:23;11.3;8.9;6.9
53698;PMS7003;68408;53.952;27.612;2024-02-16T04:59:14;12;9;7.1
53698;PMS7003;68408;53.952;27.612;2024-02-16T05:04:15;12.7;9.8;7.7
53698;PMS7003;68408;53.952;27.612;2024-02-16T05:09:32;14.1;10.8;8.4
53698;PMS7003;68408;53.952;27.612;2024-02-16T05:14:07;9.3;7.4;5.5
53698;PMS7003;68408;53.952;27.612;2024-02-16T05:19:13;12.4;9.4;7.2
53698;PMS7003;68408;53.952;27.612;2024-02-16T05:24:15;14;10.6;7.9
53698;PMS7003;68408;53.952;27.612;2024-02-16T05:29:09;12.1;10.2;7.9
53698;PMS7003;68408;53.952;27.612;2024-02-16T05:34:23;12.5;9.9;7.7
53698;PMS7003;68408;53.952;27.612;2024-02-16T05:39:43;11.2;9.6;7.6
53698;PMS7003;68408;53.952;27.612;2024-02-16T05:44:35;18.4;14.2;10.5
53698;PMS7003;68408;53.952;27.612;2024-02-16T05:49:31;15.8;12.6;9.4
53698;PMS7003;68408;53.952;27.612;2024-02-16T05:54:13;15.1;11.5;8.7
53698;PMS7003;68408;53.952;27.612;2024-02-16T05:59:31;13.2;11.2;8.8
53698;PMS7003;68408;53.952;27.612;2024-02-16T06:04:15;15.1;11.9;8.8
53698;PMS7003;68408;53.952;27.612;2024-02-16T06:09:07;13.4;11.2;8.2
53698;PMS7003;68408;53.952;27.612;2024-02-16T06:14:17;13.6;10.1;7.9
53698;PMS7003;68408;53.952;27.612;2024-02-16T06:19:27;14.1;10.8;8.5
53698;PMS7003;68408;53.952;27.612;2024-02-16T06:24:33;13.7;10.4;8.1
53698;PMS7003;68408;53.952;27.612;2024-02-16T06:29:15;12.4;10;7.5
53698;PMS7003;68408;53.952;27.612;2024-02-16T06:34:33;13.2;10.7;8.3
53698;PMS7003;68408;53.952;27.612;2024-02-16T06:39:31;13.1;10;7.9
53698;PMS7003;68408;53.952;27.612;2024-02-16T06:44:15;14.2;11;8
53698;PMS7003;68408;53.952;27.612;2024-02-16T06:49:33;14.8;11.2;8.6
53698;PMS7003;68408;53.952;27.612;2024-02-16T06:54:15;15.6;12.5;9.3
53698;PMS7003;68408;53.952;27.612;2024-02-16T06:59:15;15.1;12.1;9.2
53698;PMS7003;68408;53.952;27.612;2024-02-16T07:04:43;15.8;12.9;10.2
53698;PMS7003;68408;53.952;27.612;2024-02-16T07:09:33;14;11.3;8.7
53698;PMS7003;68408;53.952;27.612;2024-02-16T07:14:43;13.3;11;8.2
53698;PMS7003;68408;53.952;27.612;2024-02-16T07:19:43;15;11.7;9.1
53698;PMS7003;68408;53.952;27.612;2024-02-16T07:24:15;13.3;11.6;9.7
53698;PMS7003;68408;53.952;27.612;2024-02-16T07:29:43;14.5;11.9;8.9
53698;PMS7003;68408;53.952;27.612;2024-02-16T07:34:09;14.7;12.6;8.8
53698;PMS7003;68408;53.952;27.612;2024-02-16T07:39:33;15.7;11.4;8.4
53698;PMS7003;68408;53.952;27.612;2024-02-16T07:44:21;15.9;12.3;9.7
53698;PMS7003;68408;53.952;27.612;2024-02-16T07:49:43;13.7;11.4;9
53698;PMS7003;68408;53.952;27.612;2024-02-16T07:54:25;15.7;11.4;8.5
53698;PMS7003;68408;53.952;27.612;2024-02-16T07:59:43;16.4;13.2;10
53698;PMS7003;68408;53.952;27.612;2024-02-16T08:04:25;15.8;12.6;9.6
53698;PMS7003;68408;53.952;27.612;2024-02-16T08:09:23;15.8;13;9.8
53698;PMS7003;68408;53.952;27.612;2024-02-16T08:14:07;15.6;13;9.7
53698;PMS7003;68408;53.952;27.612;2024-02-16T08:19:07;16.4;12.2;9.3
53698;PMS7003;68408;53.952;27.612;2024-02-16T08:24:25;17.6;13.7;9.8
53698;PMS7003;68408;53.952;27.612;2024-02-16T08:29:21;17.2;14.1;10.2
53698;PMS7003;68408;53.952;27.612;2024-02-16T08:34:25;16.6;13.7;10.2
53698;PMS7003;68408;53.952;27.612;2024-02-16T08:39:43;15.9;12.6;9.8
53698;PMS7003;68408;53.952;27.612;2024-02-16T08:44:35;17.1;13.8;10.7
53698;PMS7003;68408;53.952;27.612;2024-02-16T08:49:43;17.5;12.7;9.9
53698;PMS7003;68408;53.952;27.612;2024-02-16T08:54:43;16.1;13.1;10.2
53698;PMS7003;68408;53.952;27.612;2024-02-16T08:59:24;16.7;13.1;9.4
53698;PMS7003;68408;53.952;27.612;2024-02-16T09:04:43;15.8;12.7;9.7
53698;PMS7003;68408;53.952;27.612;2024-02-16T09:09:43;16;13.4;9.9
53698;PMS7003;68408;53.952;27.612;2024-02-16T09:14:34;14.6;11.8;9.2
53698;PMS7003;68408;53.952;27.612;2024-02-16T09:19:13;14.4;11.1;8.7
53698;PMS7003;68408;53.952;27.612;2024-02-16T09:24:31;14.8;12.1;8.6
53698;PMS7003;68408;53.952;27.612;2024-02-16T09:29:19;15.3;12.5;9.9
53698;PMS7003;68408;53.952;27.612;2024-02-16T09:34:43;16.6;12.4;9.4
53698;PMS7003;68408;53.952;27.612;2024-02-16T09:39:07;15.2;12.4;10.1
53698;PMS7003;68408;53.952;27.612;2024-02-16T09:44:35;14.5;11.7;8.2
53698;PMS7003;68408;53.952;27.612;2024-02-16T09:49:07;17.8;14.2;10
53698;PMS7003;68408;53.952;27.612;2024-02-16T09:54:21;15.6;12.2;9.5
53698;PMS7003;68408;53.952;27.612;2024-02-16T09:59:07;15.1;11.5;8.8
53698;PMS7003;68408;53.952;27.612;2024-02-16T10:04:23;15.8;12.6;9.4
53698;PMS7003;68408;53.952;27.612;2024-02-16T10:09:25;11.7;9.6;7.2
53698;PMS7003;68408;53.952;27.612;2024-02-16T10:14:15;15.7;12;8.9
53698;PMS7003;68408;53.952;27.612;2024-02-16T10:19:27;15;12;9.2
53698;PMS7003;68408;53.952;27.612;2024-02-16T10:24:23;14.3;11.6;8.8
53698;PMS7003;68408;53.952;27.612;2024-02-16T10:29:44;13.3;10.8;8.6
53698;PMS7003;68408;53.952;27.612;2024-02-16T10:34:43;15.9;12.5;9.7
53698;PMS7003;68408;53.952;27.612;2024-02-16T10:39:41;16;12.3;9.5
53698;PMS7003;68408;53.952;27.612;2024-02-16T10:44:31;15.1;12.7;9.9
53698;PMS7003;68408;53.952;27.612;2024-02-16T10:49:09;15;12.5;9.9
53698;PMS7003;68408;53.952;27.612;2024-02-16T10:54:08;15.5;12.9;9.6
53698;PMS7003;68408;53.952;27.612;2024-02-16T10:59:25;16.7;13.3;10.2
53698;PMS7003;68408;53.952;27.612;2024-02-16T11:04:45;15.4;11.4;9.1
53698;PMS7003;68408;53.952;27.612;2024-02-16T11:09:34;14.6;12;9.1
53698;PMS7003;68408;53.952;27.612;2024-02-16T11:14:33;16.2;12.7;10.1
53698;PMS7003;68408;53.952;27.612;2024-02-16T11:19:44;15.7;12.9;9.6
53698;PMS7003;68408;53.952;27.612;2024-02-16T11:24:44;12.9;11;8.6
53698;PMS7003;68408;53.952;27.612;2024-02-16T11:29:36;11.7;10.1;7.6
53698;PMS7003;68408;53.952;27.612;2024-02-16T11:34:26;12.9;10.7;8.4
53698;PMS7003;68408;53.952;27.612;2024-02-16T11:39:23;13.7;11.4;8.9
53698;PMS7003;68408;53.952;27.612;2024-02-16T11:44:08;13.7;11.5;8.9
53698;PMS7003;68408;53.952;27.612;2024-02-16T11:49:16;13.2;11.5;9.2
53698;PMS7003;68408;53.952;27.612;2024-02-16T11:54:08;12.5;10.9;8.1
53698;PMS7003;68408;53.952;27.612;2024-02-16T11:59:15;13.2;10.6;8.3
53698;PMS7003;68408;53.952;27.612;2024-02-16T12:04:31;13.9;10.7;7.8
53698;PMS7003;68408;53.952;27.612;2024-02-16T12:09:15;14.3;11.3;8.3
53698;PMS7003;68408;53.952;27.612;2024-02-16T12:14:41;15.6;11.8;9
53698;PMS7003;68408;53.952;27.612;2024-02-16T12:19:13;14.2;11.4;8.9
53698;PMS7003;68408;53.952;27.612;2024-02-16T12:24:09;15.7;12.1;9.4
53698;PMS7003;68408;53.952;27.612;2024-02-16T12:29:07;14.1;11.2;8.8
53698;PMS7003;68408;53.952;27.612;2024-02-16T12:34:25;13.2;9.9;7
53698;PMS7003;68408;53.952;27.612;2024-02-16T12:39:35;14.7;12.8;9.6
53698;PMS7003;68408;53.952;27.612;2024-02-16T12:44:33;16.4;13.5;10
53698;PMS7003;68408;53.952;27.612;2024-02-16T12:49:25;16.6;13.7;10.5
53698;PMS7003;68408;53.952;27.612;2024-02-16T12:54:43;15.6;12.5;9.8
53698;PMS7003;68408;53.952;27.612;2024-02-16T12:59:43;15.5;12.6;9.9
53698;PMS7003;68408;53.952;27.612;2024-02-16T13:04:35;18.8;14.7;11.1
53698;PMS7003;68408;53.952;27.612;2024-02-16T13:09:15;14;11.6;9
53698;PMS7003;68408;53.952;27.612;2024-02-16T13:14:15;19.1;15.2;10.9
53698;PMS7003;68408;53.952;27.612;2024-02-16T13:19:15;16.1;13.3;10.8
53698;PMS7003;68408;53.952;27.612;2024-02-16T13:24:07;18.5;14.7;11.2
53698;PMS7003;68408;53.952;27.612;2024-02-16T13:29:07;20.5;15.9;11.8
53698;PMS7003;68408;53.952;27.612;2024-02-16T13:34:23;17.7;15;11
53698;PMS7003;68408;53.952;27.612;2024-02-16T13:39:31;28;22.6;16.6
53698;PMS7003;68408;53.952;27.612;2024-02-16T13:44:07;17.4;14.7;11
53698;PMS7003;68408;53.952;27.612;2024-02-16T13:49:43;19;14.4;10.6
53698;PMS7003;68408;53.952;27.612;2024-02-16T13:54:35;17.7;14.6;10.9
53698;PMS7003;68408;53.952;27.612;2024-02-16T13:59:31;18.1;14.6;11.5
53698;PMS7003;68408;53.952;27.612;2024-02-16T14:04:07;16.1;12.4;9.7
53698;PMS7003;68408;53.952;27.612;2024-02-16T14:09:31;18.9;15;11.3
53698;PMS7003;68408;53.952;27.612;2024-02-16T14:14:33;16.7;14.2;11
53698;PMS7003;68408;53.952;27.612;2024-02-16T14:19:21;17.7;14.4;11.4
53698;PMS7003;68408;53.952;27.612;2024-02-16T14:24:08;14.1;11.9;9
53698;PMS7003;68408;53.952;27.612;2024-02-16T14:29:35;17.3;13.9;10.6
53698;PMS7003;68408;53.952;27.612;2024-02-16T14:34:43;14.5;12.6;9.6
53698;PMS7003;68408;53.952;27.612;2024-02-16T14:39:33;16.6;13.2;10.5
53698;PMS7003;68408;53.952;27.612;2024-02-16T14:44:33;16.4;13.7;10.3
53698;PMS7003;68408;53.952;27.612;2024-02-16T14:49:11;15;12.3;9.8
53698;PMS7003;68408;53.952;27.612;2024-02-16T14:54:21;14.9;13.1;9.6
53698;PMS7003;68408;53.952;27.612;2024-02-16T14:59:13;14.6;12.8;10.4
53698;PMS7003;68408;53.952;27.612;2024-02-16T15:04:23;13.8;11.9;8.8
53698;PMS7003;68408;53.952;27.612;2024-02-16T15:09:25;14.3;11.2;8.6
53698;PMS7003;68408;53.952;27.612;2024-02-16T15:14:43;12.9;11.1;8
53698;PMS7003;68408;53.952;27.612;2024-02-16T15:19:36;14.6;11.3;8.6
53698;PMS7003;68408;53.952;27.612;2024-02-16T15:24:43;13.9;11.4;8.5
53698;PMS7003;68408;53.952;27.612;2024-02-16T15:29:43;15.1;12;9.3
53698;PMS7003;68408;53.952;27.612;2024-02-16T15:34:07;18.5;15.3;11.6
53698;PMS7003;68408;53.952;27.612;2024-02-16T15:39:33;14.3;11.8;9.4
53698;PMS7003;68408;53.952;27.612;2024-02-16T15:44:43;14.8;11.5;8.8
53698;PMS7003;68408;53.952;27.612;2024-02-16T15:49:09;12.2;9.6;6.6
53698;PMS7003;68408;53.952;27.612;2024-02-16T15:54:31;14.2;11.6;8.6
53698;PMS7003;68408;53.952;27.612;2024-02-16T15:59:31;12;9.7;7.9
53698;PMS7003;68408;53.952;27.612;2024-02-16T16:04:37;12.2;9.2;7
53698;PMS7003;68408;53.952;27.612;2024-02-16T16:09:45;13.7;10.8;8.4
53698;PMS7003;68408;53.952;27.612;2024-02-16T16:14:27;13.6;10.9;8.3
53698;PMS7003;68408;53.952;27.612;2024-02-16T16:19:46;13;10.4;8
53698;PMS7003;68408;53.952;27.612;2024-02-16T16:24:27;16.8;14.2;10.5
53698;PMS7003;68408;53.952;27.612;2024-02-16T16:29:15;17.3;13.9;10.1
53698;PMS7003;68408;53.952;27.612;2024-02-16T16:34:07;14.5;11.1;8.4
53698;PMS7003;68408;53.952;27.612;2024-02-16T16:39:08;14.5;11.1;8.7
53698;PMS7003;68408;53.952;27.612;2024-02-16T16:44:17;13.8;11.7;9
53698;PMS7003;68408;53.952;27.612;2024-02-16T16:49:45;14;11.2;8.3
53698;PMS7003;68408;53.952;27.612;2024-02-16T16:54:37;14.4;12;9.7
53698;PMS7003;68408;53.952;27.612;2024-02-16T16:59:32;14.4;12.1;9.3
53698;PMS7003;68408;53.952;27.612;2024-02-16T17:04:46;15.5;13.2;9.9
53698;PMS7003;68408;53.952;27.612;2024-02-16T17:09:16;17.1;12.9;10.3
53698;PMS7003;68408;53.952;27.612;2024-02-16T17:14:44;14.8;11.6;9
53698;PMS7003;68408;53.952;27.612;2024-02-16T17:19:44;19.5;15.9;11.8
53698;PMS7003;68408;53.952;27.612;2024-02-16T17:24:36;21.4;16.9;12.4
53698;PMS7003;68408;53.952;27.612;2024-02-16T17:29:14;19;15.6;11.7
53698;PMS7003;68408;53.952;27.612;2024-02-16T17:34:32;18.8;15.4;11.4
53698;PMS7003;68408;53.952;27.612;2024-02-16T17:39:46;19.2;16;11.7
53698;PMS7003;68408;53.952;27.612;2024-02-16T17:44:46;17.6;14.2;10.6
53698;PMS7003;68408;53.952;27.612;2024-02-16T17:49:28;18.7;14.4;11
53698;PMS7003;68408;53.952;27.612;2024-02-16T17:54:46;17.1;13.7;10.4
53698;PMS7003;68408;53.952;27.612;2024-02-16T17:59:16;17.4;13.4;10.6
53698;PMS7003;68408;53.952;27.612;2024-02-16T18:04:16;16;12.7;9.9
53698;PMS7003;68408;53.952;27.612;2024-02-16T18:09:26;16.9;14;10.8
53698;PMS7003;68408;53.952;27.612;2024-02-16T18:14:08;15.6;13.2;9.9
53698;PMS7003;68408;53.952;27.612;2024-02-16T18:19:20;17.1;13.8;10.1
53698;PMS7003;68408;53.952;27.612;2024-02-16T18:24:08;15.6;12.3;9.6
53698;PMS7003;68408;53.952;27.612;2024-02-16T18:29:38;16.8;13.3;10
53698;PMS7003;68408;53.952;27.612;2024-02-16T18:34:24;13.3;11.3;8.9
53698;PMS7003;68408;53.952;27.612;2024-02-16T18:39:46;13.6;11.9;9.6
53698;PMS7003;68408;53.952;27.612;2024-02-16T18:44:08;14.4;11.8;9.2
53698;PMS7003;68408;53.952;27.612;2024-02-16T18:49:46;13.7;11.3;8.5
53698;PMS7003;68408;53.952;27.612;2024-02-16T18:54:08;13.9;10.8;8.5
53698;PMS7003;68408;53.952;27.612;2024-02-16T18:59:36;13.3;10.1;8.3
53698;PMS7003;68408;53.952;27.612;2024-02-16T19:04:22;13.4;9.5;7.4
53698;PMS7003;68408;53.952;27.612;2024-02-16T19:09:18;13.5;11.3;8.9
53698;PMS7003;68408;53.952;27.612;2024-02-16T19:14:36;12.2;10.3;8.3
53698;PMS7003;68408;53.952;27.612;2024-02-16T19:19:47;10.7;8.3;6.3
53698;PMS7003;68408;53.952;27.612;2024-02-16T19:24:20;9.8;8.3;6.3
53698;PMS7003;68408;53.952;27.612;2024-02-16T19:29:46;9;7.5;6.1
53698;PMS7003;68408;53.952;27.612;2024-02-16T19:34:46;9.1;7.8;6.1
53698;PMS7003;68408;53.952;27.612;2024-02-16T19:39:38;8.8;6.2;4.9
53698;PMS7003;68408;53.952;27.612;2024-02-16T19:44:08;10.5;7.6;5.9
53698;PMS7003;68408;53.952;27.612;2024-02-16T19:49:08;9;7.5;5.6
53698;PMS7003;68408;53.952;27.612;2024-02-16T19:54:08;8.5;6.8;5.2
53698;PMS7003;68408;53.952;27.612;2024-02-16T19:59:16;8.5;6.4;5.1
53698;PMS7003;68408;53.952;27.612;2024-02-16T20:04:08;8.3;6.2;5
53698;PMS7003;68408;53.952;27.612;2024-02-16T20:09:16;8.9;6.5;5.2
53698;PMS7003;68408;53.952;27.612;2024-02-16T20:14:32;7;5.3;4.3
53698;PMS7003;68408;53.952;27.612;2024-02-16T20:19:24;7.6;6.1;4.9
53698;PMS7003;68408;53.952;27.612;2024-02-16T20:24:46;7;5.8;4.8
53698;PMS7003;68408;53.952;27.612;2024-02-16T20:29:30;8.2;6.5;5.5
53698;PMS7003;68408;53.952;27.612;2024-02-16T20:34:18;7.4;5.9;4.8
53698;PMS7003;68408;53.952;27.612;2024-02-16T20:39:22;7.9;5.5;4.4
53698;PMS7003;68408;53.952;27.612;2024-02-16T20:44:32;8;6.4;5.1
53698;PMS7003;68408;53.952;27.612;2024-02-16T20:49:36;7.3;5.6;4.6
53698;PMS7003;68408;53.952;27.612;2024-02-16T20:54:28;9.9;8;6.1
53698;PMS7003;68408;53.952;27.612;2024-02-16T20:59:28;7.4;6;5
53698;PMS7003;68408;53.952;27.612;2024-02-16T21:04:46;7;5.6;4.8
53698;PMS7003;68408;53.952;27.612;2024-02-16T21:09:40;8;5.8;5
53698;PMS7003;68408;53.952;27.612;2024-02-16T21:14:38;7.5;6;4.8
53698;PMS7003;68408;53.952;27.612;2024-02-16T21:19:28;8.1;6.5;5.1
53698;PMS7003;68408;53.952;27.612;2024-02-16T21:24:08;7.7;6;5.1
53698;PMS7003;68408;53.952;27.612;2024-02-16T21:29:16;6.1;4.9;3.9
53698;PMS7003;68408;53.952;27.612;2024-02-16T21:34:08;7.9;5.8;4.6
53698;PMS7003;68408;53.952;27.612;2024-02-16T21:39:08;7.1;5.9;5
53698;PMS7003;68408;53.952;27.612;2024-02-16T21:44:08;7.3;6;4.3
53698;PMS7003;68408;53.952;27.612;2024-02-16T21:49:24;7.8;5.7;4.9
53698;PMS7003;68408;53.952;27.612;2024-02-16T21:54:24;7.2;5.7;4.6
53698;PMS7003;68408;53.952;27.612;2024-02-16T21:59:32;7;5;3.9
53698;PMS7003;68408;53.952;27.612;2024-02-16T22:04:38;7.2;5.8;4.6
53698;PMS7003;68408;53.952;27.612;2024-02-16T22:09:30;7.5;6;4.9
53698;PMS7003;68408;53.952;27.612;2024-02-16T22:14:08;8.7;6.2;4.9
53698;PMS7003;68408;53.952;27.612;2024-02-16T22:19:24;7.4;6;4.7
53698;PMS7003;68408;53.952;27.612;2024-02-16T22:24:34;7.6;6.1;4.7
53698;PMS7003;68408;53.952;27.612;2024-02-16T22:29:22;8.1;5.7;4.6
53698;PMS7003;68408;53.952;27.612;2024-02-16T22:34:08;7.7;5.7;4.7
53698;PMS7003;68408;53.952;27.612;2024-02-16T22:39:38;9.4;6.4;5
53698;PMS7003;68408;53.952;27.612;2024-02-16T22:44:46;7.7;5.7;4.4
53698;PMS7003;68408;53.952;27.612;2024-02-16T22:49:08;7;5.6;4.4
53698;PMS7003;68408;53.952;27.612;2024-02-16T22:54:36;9.1;6.7;5.4
53698;PMS7003;68408;53.952;27.612;2024-02-16T22:59:12;7.3;5.7;4.8
53698;PMS7003;68408;53.952;27.612;2024-02-16T23:04:14;8.9;6.9;5
53698;PMS7003;68408;53.952;27.612;2024-02-16T23:09:14;8.8;7.2;5.5
53698;PMS7003;68408;53.952;27.612;2024-02-16T23:14:20;9.5;7.5;5.8
53698;PMS7003;68408;53.952;27.612;2024-02-16T23:19:08;8.2;6.8;5.4
53698;PMS7003;68408;53.952;27.612;2024-02-16T23:24:44;9.3;7.9;5.8
53698;PMS7003;68408;53.952;27.612;2024-02-16T23:29:36;8.4;7.2;5.2
53698;PMS7003;68408;53.952;27.612;2024-02-16T23:34:44;8.3;7.6;5.9
53698;PMS7003;68408;53.952;27.612;2024-02-16T23:39:44;8.8;6.7;4.9
53698;PMS7003;68408;53.952;27.612;2024-02-16T23:44:22;10.6;8.2;6.4
53698;PMS7003;68408;53.952;27.612;2024-02-16T23:49:44;9.4;6.9;5.6
53698;PMS7003;68408;53.952;27.612;2024-02-16T23:54:44;8.2;6;4.4
53698;PMS7003;68408;53.952;27.612;2024-02-16T23:59:34;11;8.9;6.3
